createdAt,value
2023-04-29T00:03:12.837Z,100173.94
2023-04-29T00:08:14.624Z,100171.03
2023-04-29T00:13:17.812Z,100181.16
2023-04-29T00:18:19.478Z,100174.75
2023-04-29T00:23:21.131Z,100178.09
2023-04-29T00:28:24.230Z,100176.19
2023-04-29T00:33:25.993Z,100166.19
2023-04-29T00:38:27.722Z,100169.09
2023-04-29T00:43:30.840Z,100170.34
2023-04-29T00:48:32.518Z,100181.63
2023-04-29T00:53:34.419Z,100178.66
2023-04-29T00:58:37.770Z,100178.81
2023-04-29T01:03:39.770Z,100175.84
2023-04-29T01:08:52.396Z,100180.19
2023-04-29T01:13:59.635Z,100185.19
2023-04-29T01:19:06.706Z,100176.25
2023-04-29T01:24:09.792Z,100181.16
2023-04-29T01:29:24.593Z,100183.81
2023-04-29T01:34:34.198Z,100181.84
2023-04-29T01:39:45.395Z,100179.34
2023-04-29T01:44:51.077Z,100187.19
2023-04-29T01:49:52.769Z,100181.81
2023-04-29T01:54:56.091Z,100182.31
2023-04-29T01:59:57.703Z,100191.53
2023-04-29T02:04:59.657Z,100197.38
2023-04-29T02:10:02.915Z,100203.19
2023-04-29T02:15:05.376Z,100195.97
2023-04-29T02:20:08.482Z,100203.06
2023-04-29T02:25:12.016Z,100205.84
2023-04-29T02:30:13.639Z,100213.09
2023-04-29T02:35:15.557Z,100220.91
2023-04-29T02:40:18.565Z,100222.28
2023-04-29T02:45:20.279Z,100225.94
2023-04-29T02:50:21.945Z,100229.28
2023-04-29T02:55:25.225Z,100225.63
2023-04-29T03:00:26.883Z,100231.09
2023-04-29T03:05:28.579Z,100227.44
2023-04-29T03:10:31.590Z,100224.94
2023-04-29T03:15:33.405Z,100237.09
2023-04-29T03:20:35.111Z,100236.53
2023-04-29T03:25:38.191Z,100239.88
2023-04-29T03:30:39.888Z,100249.13
2023-04-29T03:35:41.585Z,100247.44
2023-04-29T03:40:44.769Z,100253.72
2023-04-29T03:45:46.571Z,100262.25
2023-04-29T03:50:48.358Z,100259.31
2023-04-29T03:55:51.600Z,100260.59
2023-04-29T04:00:53.298Z,100274.97
2023-04-29T04:05:55.016Z,100265.06
2023-04-29T04:10:58.044Z,100272.75
2023-04-29T04:15:59.754Z,100268.44
2023-04-29T04:21:05.891Z,100281.13
2023-04-29T04:26:09.015Z,100294.09
2023-04-29T04:31:10.744Z,100292.19
2023-04-29T04:36:12.496Z,100290.22
2023-04-29T04:41:15.562Z,100295.53
2023-04-29T04:46:17.342Z,100314.75
2023-04-29T04:51:21.055Z,100314.75
2023-04-29T04:56:24.611Z,100328.69
2023-04-29T05:01:26.214Z,100338.78
2023-04-29T05:06:27.941Z,100350.19
2023-04-29T05:11:33.208Z,100348.09
2023-04-29T05:16:34.947Z,100347.53
2023-04-29T05:21:36.606Z,100352.97
2023-04-29T05:26:39.622Z,100363.84
2023-04-29T05:31:41.315Z,100375.53
2023-04-29T05:36:42.977Z,100375.72
2023-04-29T05:41:46.026Z,100379.47
2023-04-29T05:46:47.680Z,100386.31
2023-04-29T05:51:49.327Z,100405.25
2023-04-29T05:56:52.355Z,100412.50
2023-04-29T06:01:54.015Z,100413.63
2023-04-29T06:06:56.893Z,100417.25
2023-04-29T06:11:59.922Z,100425.78
2023-04-29T06:17:01.644Z,100433.16
2023-04-29T06:22:03.239Z,100440.41
2023-04-29T06:27:06.309Z,100440.28
2023-04-29T06:32:08.224Z,100437.63
2023-04-29T06:37:09.864Z,100445.88
2023-04-29T06:42:12.870Z,100456.31
2023-04-29T06:47:14.669Z,100450.44
2023-04-29T06:52:16.327Z,100455.75
2023-04-29T06:57:19.317Z,100460.50
2023-04-29T07:02:21.029Z,100469.13
2023-04-29T07:07:22.684Z,100468.56
2023-04-29T07:12:26.650Z,100469.69
2023-04-29T07:17:29.767Z,100473.75
2023-04-29T07:22:31.424Z,100485.19
2023-04-29T07:27:34.879Z,100492.69
2023-04-29T07:32:36.745Z,100506.25
2023-04-29T07:37:38.375Z,100508.34
2023-04-29T07:42:41.395Z,100517.94
2023-04-29T07:47:43.053Z,100520.34
2023-04-29T07:52:44.779Z,100524.81
2023-04-29T07:57:47.808Z,100536.38
2023-04-29T08:02:51.162Z,100543.19
2023-04-29T08:07:52.890Z,100548.09
2023-04-29T08:12:55.897Z,100559.38
2023-04-29T08:17:57.618Z,100573.44
2023-04-29T08:22:59.371Z,100568.84
2023-04-29T08:28:02.468Z,100582.22
2023-04-29T08:33:04.152Z,100586.28
2023-04-29T08:38:06.326Z,100579.59
2023-04-29T08:43:10.403Z,100586.03
2023-04-29T08:48:13.191Z,100592.28
2023-04-29T08:53:14.996Z,100602.47
2023-04-29T08:58:18.182Z,100599.56
2023-04-29T09:03:25.371Z,100609.88
2023-04-29T09:08:27.896Z,100610.56
2023-04-29T09:13:31.677Z,100624.97
2023-04-29T09:18:44.603Z,100623.69
2023-04-29T09:23:47.074Z,100626.91
2023-04-29T09:29:06.889Z,100633.47
2023-04-29T09:34:08.809Z,100638.38
2023-04-29T09:39:11.487Z,100643.41
2023-04-29T09:44:14.557Z,100646.56
2023-04-29T09:49:23.313Z,100656.66
2023-04-29T09:54:27.138Z,100650.50
2023-04-29T09:59:30.227Z,100660.41
2023-04-29T10:04:34.859Z,100664.88
2023-04-29T10:09:39.806Z,100671.16
2023-04-29T10:14:47.836Z,100667.53
2023-04-29T10:19:57.769Z,100668.50
2023-04-29T10:25:01.546Z,100674.34
2023-04-29T10:30:08.974Z,100676.06
2023-04-29T10:35:12.121Z,100680.66
2023-04-29T10:40:17.217Z,100685.25
2023-04-29T10:45:25.374Z,100687.63
2023-04-29T10:50:28.291Z,100678.00
2023-04-29T10:55:30.399Z,100676.88
2023-04-29T11:00:34.767Z,100671.31
2023-04-29T11:05:37.231Z,100673.84
2023-04-29T11:10:41.682Z,100684.16
2023-04-29T11:15:44.733Z,100680.50
2023-04-29T11:21:14.629Z,100688.88
2023-04-29T11:26:19.658Z,100689.31
2023-04-29T11:31:28.799Z,100678.56
2023-04-29T11:36:31.973Z,100676.19
2023-04-29T11:41:33.605Z,100679.00
2023-04-29T11:46:36.703Z,100681.50
2023-04-29T11:51:38.526Z,100670.63
2023-04-29T11:56:40.190Z,100666.44
2023-04-29T12:01:43.408Z,100666.84
2023-04-29T12:06:45.070Z,100671.47
2023-04-29T12:11:47.080Z,100679.72
2023-04-29T12:16:50.186Z,100673.00
2023-04-29T12:21:51.873Z,100675.53
2023-04-29T12:26:55.203Z,100674.25
2023-04-29T12:31:58.338Z,100685.75
2023-04-29T12:37:00.510Z,100685.19
2023-04-29T12:42:02.127Z,100689.91
2023-04-29T12:47:09.983Z,100698.16
2023-04-29T12:52:12.340Z,100704.31
2023-04-29T12:57:14.380Z,100704.44
2023-04-29T13:02:17.567Z,100703.06
2023-04-29T13:07:19.275Z,100695.94
2023-04-29T13:12:20.918Z,100715.19
2023-04-29T13:17:24.036Z,100711.16
2023-04-29T13:22:25.694Z,100710.03
2023-04-29T13:27:27.438Z,100709.19
2023-04-29T13:32:43.298Z,100718.69
2023-04-29T13:37:47.906Z,100718.97
2023-04-29T13:42:50.810Z,100726.78
2023-04-29T13:48:09.600Z,100735.44
2023-04-29T14:03:28.944Z,100728.19
2023-04-29T14:08:32.141Z,100744.84
2023-04-29T14:13:33.808Z,100744.84
2023-04-29T14:18:36.861Z,100755.41
2023-04-29T14:23:38.590Z,100757.50
2023-04-29T14:28:40.226Z,100767.00
2023-04-29T14:33:43.229Z,100766.16
2023-04-29T14:38:44.882Z,100768.25
2023-04-29T14:43:46.567Z,100779.13
2023-04-29T14:48:49.631Z,100785.81
2023-04-29T14:53:51.317Z,100795.59
2023-04-29T14:58:53.055Z,100796.19
2023-04-29T15:03:56.243Z,100792.25
2023-04-29T15:08:57.938Z,100799.53
2023-04-29T15:13:59.603Z,100793.09
2023-04-29T15:19:20.913Z,100798.69
2023-04-29T15:24:29.118Z,100792.25
2023-04-29T15:29:33.272Z,100803.19
2023-04-29T15:34:36.332Z,100807.34
2023-04-29T15:39:37.961Z,100802.88
2023-04-29T15:44:39.707Z,100811.94
2023-04-29T15:49:43.354Z,100819.59
2023-04-29T15:54:44.996Z,100825.91
2023-04-29T15:59:46.623Z,100827.41
2023-04-29T16:04:49.653Z,100824.06
2023-04-29T16:09:51.807Z,100824.88
2023-04-29T16:14:53.516Z,100834.13
2023-04-29T16:19:56.521Z,100832.72
2023-04-29T16:24:58.287Z,100824.47
2023-04-29T16:30:00.266Z,100824.38
2023-04-29T16:35:06.803Z,100828.53
2023-04-29T16:45:39.187Z,100814.44
2023-04-29T16:50:42.295Z,100827.97
2023-04-29T16:55:44.189Z,100824.75
2023-04-29T17:00:46.284Z,100829.81
2023-04-29T17:05:49.378Z,100838.00
2023-04-29T17:10:51.010Z,100840.53
2023-04-29T17:15:52.797Z,100845.00
2023-04-29T17:20:55.803Z,100843.59
2023-04-29T17:25:57.522Z,100846.25
2023-04-29T17:30:59.115Z,100847.47
2023-04-29T17:36:03.038Z,100835.34
2023-04-29T17:41:04.792Z,100838.00
2023-04-29T17:46:06.470Z,100841.47
2023-04-29T17:51:09.515Z,100851.69
2023-04-29T17:56:11.202Z,100850.66
2023-04-29T18:01:33.981Z,100855.97
2023-04-29T18:07:44.479Z,100867.16
2023-04-29T18:18:41.309Z,100861.28
2023-04-29T18:29:44.691Z,100869.41
2023-04-29T19:21:26.883Z,100909.06
2023-04-29T19:26:19.810Z,100916.81
2023-04-29T19:31:22.995Z,100922.84
2023-04-29T19:36:24.741Z,100922.72
2023-04-29T19:41:26.563Z,100927.19
2023-04-29T19:46:29.745Z,100931.66
2023-04-29T19:51:31.572Z,100930.94
2023-04-29T19:56:33.229Z,100925.75
2023-04-29T20:01:36.312Z,100927.81
2023-04-29T20:06:38.122Z,100929.78
2023-04-29T20:11:39.836Z,100922.78
2023-04-29T20:16:42.905Z,100922.78
2023-04-29T20:21:44.641Z,100921.63
2023-04-29T20:26:46.283Z,100925.81
2023-04-29T20:31:49.390Z,100924.53
2023-04-29T20:36:51.063Z,100919.34
2023-04-29T20:41:52.768Z,100925.50
2023-04-29T20:46:55.847Z,100932.72
2023-04-29T20:51:58.395Z,100946.25
2023-04-29T20:57:00.467Z,100950.56
2023-04-29T21:02:03.554Z,100955.16
2023-04-29T21:07:05.446Z,100955.66
2023-04-29T21:12:07.365Z,100967.09
2023-04-29T21:17:10.414Z,100965.56
2023-04-29T21:22:12.145Z,100962.06
2023-04-29T21:27:14.051Z,100956.78
2023-04-29T21:32:17.298Z,100953.00
2023-04-29T21:37:19.089Z,100957.59
2023-04-29T21:42:22.354Z,100961.94
2023-04-29T21:47:26.812Z,100965.66
2023-04-29T21:52:29.650Z,100966.25
2023-04-29T21:57:42.639Z,100964.38
2023-04-29T22:02:46.353Z,100965.94
2023-04-29T22:07:48.094Z,100966.06
2023-04-29T22:12:49.963Z,100970.66
2023-04-29T22:17:53.045Z,100977.06
2023-04-29T22:22:54.939Z,100975.25
2023-04-29T22:27:56.697Z,100979.56
2023-04-29T22:32:59.763Z,100979.22
2023-04-29T22:38:01.482Z,100971.53
2023-04-29T22:43:03.165Z,100987.41
2023-04-29T22:48:06.693Z,100985.25
2023-04-29T22:53:08.426Z,100985.38
2023-04-29T22:58:10.076Z,100985.25
2023-04-29T23:03:13.104Z,100978.66
2023-04-29T23:08:15.323Z,100989.41
2023-04-29T23:13:17.354Z,100987.81
2023-04-29T23:18:21.673Z,100990.13
2023-04-29T23:23:23.450Z,100995.78
2023-04-29T23:28:25.262Z,100993.34
2023-04-29T23:33:28.333Z,100992.75
2023-04-29T23:38:29.985Z,100996.75
2023-04-29T23:43:31.666Z,101000.81
2023-04-29T23:48:34.723Z,100996.13
2023-04-29T23:53:36.393Z,100997.66
2023-04-29T23:58:38.017Z,100997.78
